Little Rock Air Force Base
KLRF : rendu visible

Aérodrome :











RETROUVEZ-NOUS SUR...

 
LOGIN :

S'inscrire | Disclaimer

   EN    FR    IT 

 









Légende :    VFR   VFR Marginal   IFR   IFR Intensif   IFR Très Intensif
Visi : 
Plafond : 
>= 8 km
>= 3000ft
5 à 8 km
1000 à 3000 ft
1500m à 5 km
500 à 1000 ft
800 à 1500m
200 à 500 ft
< 800m
< 200 ft
Symboles :   Orages  Brouillard  Fortes neiges  Fortes précipitations  Vent > 20 kt






- Altitude de l'aérodrome : 311 ft


KLRF - Little Rock Air Force Base

DERNIER METAR :
  • 190556Z AUTO 00000KT 10SM CLR 16/11 A3018 RMK AO2 SLP221 T01640113 10218 20163 402710163 58003

METARs EXPIRÉS :
  • 190456Z AUTO 03005KT 10SM CLR 17/12 A3018 RMK AO2 SLP221 T01660117
  • 190356Z AUTO 04005KT 10SM CLR 18/12 A3019 RMK AO2 SLP224 T01780120

TAF TAF KLRF
Valide du 18 à 23h jusqu'au 20 à 05h UTC


182300Z 1823/2005 04006KT 9999 SKC QNH3012INS
BECMG 1902/1903 04006KT 9999 SKC WS020/05030KT QNH3015INS
BECMG 1914/1915 06012G18KT 9999 SKC QNH3014INS
BECMG 1921/1922 04006KT 9999 SKC QNH3014INS TX27/1900Z TN13/1911Z
FIR KZME / Amérique du Nord



MET'MAP, la Météo Aéronautique d'un coup d'oeil ! - Copyright ORBIFLY Décembre 2007 - Disclaimer

ORBIFLY MET'MAP TEAM :

Programmation & Développement : Alexandra Zaïnal
Sur une idée originale de : Baudouin d'Aumeries
Assistance à la programmation : Marc-Olivier Méhu
Soutien technique & logistique : Manuel Goepfert

Contact : metmap@orbifly.com




SOURCES & CREDITS :

   NOAA       Earth
Advisory